Time;durP1;ratioP1;P1;durP2;ratioP2;P2;SDS_P1;SDS_P2;PMS_P1;PMS_P2;Temp;Humidity;BMP_temperature;BMP_pressure;BME280_temperature;BME280_humidity;BME280_pressure;Samples;Min_cycle;Max_cycle;Signal;HPM_P1;HPM_P2
2021/09/01 00:00:39;;;;;;;;;;;;;;;15.72;77.56;101090.22;4994298;28;19928;-64
2021/09/01 00:03:23;;;;;;;;;;;;;;;15.72;77.61;101090.22;4993998;28;19945;-64
2021/09/01 00:06:10;;;;;;;;;;;;;;;15.73;77.44;101088.47;4993603;28;19973;-62
2021/09/01 00:08:59;;;;;;;;;;;;;;;15.72;77.37;101091.97;4993939;28;19929;-62
2021/09/01 00:11:47;;;;;;;;;;;;;;;15.73;77.59;101085.88;5007502;28;19928;-62
2021/09/01 00:14:32;;;;;;;;;;;;;;;15.72;77.35;101089.38;5007454;28;20029;-63
2021/09/01 00:17:15;;;;;;;;;;;;;;;15.71;77.43;101087.63;4994132;28;19933;-62
2021/09/01 00:20:06;;;;;;;;;;;;;;;15.71;77.45;101087.63;4994026;28;19928;-62
2021/09/01 00:22:50;;;;;;;;;;;;;;;15.70;77.42;101086.72;4992971;28;20412;-62
2021/09/01 00:25:40;;;;;;;;;;;;;;;15.71;77.43;101085.88;4994372;28;19929;-63
2021/09/01 00:28:26;;;;;;;;;;;;;;;15.69;77.60;101082.34;5007104;28;19928;-62
2021/09/01 00:31:13;;;;;;;;;;;;;;;15.70;77.59;101080.63;5009793;28;19929;-63
2021/09/01 00:33:57;;;;;;;;;;;;;;;15.70;77.47;101072.78;4996814;28;19972;-62
2021/09/01 00:36:44;;;;;;;;;;;;;;;15.70;77.45;101078.03;4998161;28;19991;-63
2021/09/01 00:39:28;;;;;;;;;;;;;;;15.69;77.58;101069.28;4998064;28;20431;-63
2021/09/01 00:42:15;;;;;;;;;;;;;;;15.68;77.54;101065.81;4997880;28;19949;-63
2021/09/01 00:44:59;;;;;;;;;;;;;;;15.68;77.35;101063.19;4996947;28;20399;-62
2021/09/01 00:47:45;;;;;;;;;;;;;;;15.69;77.41;101069.28;4997939;28;20451;-62
2021/09/01 00:50:29;;;;;;;;;;;;;;;15.67;77.42;101069.28;4997200;28;19954;-63
2021/09/01 00:53:14;;;;;;;;;;;;;;;15.67;77.39;101068.38;4996717;28;19945;-62
2021/09/01 00:55:58;;;;;;;;;;;;;;;15.67;77.52;101071.00;4998072;28;20325;-63
2021/09/01 00:58:45;;;;;;;;;;;;;;;15.66;77.60;101072.75;4997231;28;20411;-62
2021/09/01 01:01:32;;;;;;;;;;;;;;;15.67;77.54;101076.22;4996242;28;19959;-62
2021/09/01 01:04:16;;;;;;;;;;;;;;;15.67;77.38;101077.13;4996359;28;20331;-63
2021/09/01 01:07:04;;;;;;;;;;;;;;;15.66;77.39;101083.19;4996175;28;19941;-62
2021/09/01 01:09:51;;;;;;;;;;;;;;;15.65;77.49;101078.84;4996691;28;20015;-63
2021/09/01 01:12:40;;;;;;;;;;;;;;;15.64;77.50;101081.44;4997753;28;19932;-62
2021/09/01 01:15:27;;;;;;;;;;;;;;;15.64;77.17;101081.44;5009791;28;19945;-62
2021/09/01 01:18:12;;;;;;;;;;;;;;;15.64;77.51;101079.69;4997071;28;19964;-62
2021/09/01 01:20:55;;;;;;;;;;;;;;;15.64;77.45;101090.16;4997140;28;20379;-62
2021/09/01 01:23:45;;;;;;;;;;;;;;;15.64;77.53;101084.91;4997058;28;20340;-62
2021/09/01 01:26:29;;;;;;;;;;;;;;;15.63;77.52;101087.53;5010303;28;20011;-62
2021/09/01 01:29:16;;;;;;;;;;;;;;;15.62;77.54;101086.63;4996981;28;19929;-62
2021/09/01 01:32:03;;;;;;;;;;;;;;;15.61;77.32;101090.09;4996923;28;19928;-62
2021/09/01 01:34:52;;;;;;;;;;;;;;;15.62;77.48;101085.78;4995979;28;19968;-62
2021/09/01 01:37:38;;;;;;;;;;;;;;;15.62;77.38;101096.22;5009514;28;20443;-62
2021/09/01 01:40:28;;;;;;;;;;;;;;;15.61;77.53;101090.09;4997248;28;20325;-62
2021/09/01 01:43:16;;;;;;;;;;;;;;;15.61;77.38;101090.09;4995648;28;19928;-62
2021/09/01 01:46:00;;;;;;;;;;;;;;;15.61;77.40;101089.25;4996280;28;19933;-62
2021/09/01 01:48:44;;;;;;;;;;;;;;;15.61;77.50;101091.84;4996359;28;20025;-62
2021/09/01 01:51:28;;;;;;;;;;;;;;;15.61;77.53;101089.25;4996904;28;19928;-62
2021/09/01 01:54:14;;;;;;;;;;;;;;;15.60;77.45;101095.31;4995454;28;20460;-62
2021/09/01 01:57:01;;;;;;;;;;;;;;;15.60;77.33;101088.34;4995562;28;19928;-63
2021/09/01 01:59:51;;;;;;;;;;;;;;;15.60;77.42;101092.72;4995045;28;19932;-62
2021/09/01 02:02:35;;;;;;;;;;;;;;;15.59;77.45;101085.72;4997002;28;20100;-62
2021/09/01 02:05:25;;;;;;;;;;;;;;;15.58;77.38;101087.44;4996348;28;19969;-63
2021/09/01 02:08:09;;;;;;;;;;;;;;;15.58;77.47;101095.28;4996419;28;19968;-63
2021/09/01 02:10:53;;;;;;;;;;;;;;;15.57;77.22;101090.91;4996689;28;19929;-62
2021/09/01 02:13:37;;;;;;;;;;;;;;;15.57;77.30;101090.91;4995830;28;20061;-62
2021/09/01 02:16:21;;;;;;;;;;;;;;;15.58;77.39;101094.41;4996583;28;19929;-62
2021/09/01 02:19:05;;;;;;;;;;;;;;;15.58;77.51;101099.66;5009284;28;20056;-63
2021/09/01 02:21:51;;;;;;;;;;;;;;;15.57;77.40;101092.66;4995636;28;19928;-63
2021/09/01 02:24:42;;;;;;;;;;;;;;;15.56;77.29;101085.69;4995418;28;19933;-63
2021/09/01 02:27:28;;;;;;;;;;;;;;;15.56;77.38;101093.53;5009108;28;19932;-63
2021/09/01 02:30:12;;;;;;;;;;;;;;;15.56;77.43;101099.63;4995896;28;20018;-63
2021/09/01 02:32:59;;;;;;;;;;;;;;;15.56;77.44;101101.34;4995439;28;19929;-63
2021/09/01 02:35:43;;;;;;;;;;;;;;;15.56;77.41;101103.97;4995771;28;19929;-62
2021/09/01 02:38:29;;;;;;;;;;;;;;;15.55;77.50;101094.38;4995904;28;19960;-63
2021/09/01 02:41:16;;;;;;;;;;;;;;;15.54;77.35;101096.13;4994703;28;19928;-63
2021/09/01 02:44:06;;;;;;;;;;;;;;;15.55;77.24;101094.38;4994856;28;20289;-62
2021/09/01 02:46:53;;;;;;;;;;;;;;;15.54;77.28;101096.13;4994717;28;19928;-62
2021/09/01 02:49:40;;;;;;;;;;;;;;;15.55;77.30;101097.00;4994488;28;19928;-62
2021/09/01 02:52:23;;;;;;;;;;;;;;;15.54;77.35;101101.34;5008200;28;19928;-62
2021/09/01 02:55:10;;;;;;;;;;;;;;;15.54;77.46;101101.34;4995231;28;19972;-62
2021/09/01 02:57:57;;;;;;;;;;;;;;;15.53;77.45;101100.47;4995333;28;19945;-62
2021/09/01 03:00:41;;;;;;;;;;;;;;;15.53;77.41;101102.22;4995285;28;19929;-62
2021/09/01 03:03:27;;;;;;;;;;;;;;;15.53;77.42;101097.84;4995191;28;19928;-62
2021/09/01 03:06:11;;;;;;;;;;;;;;;15.53;77.44;101094.38;4994085;28;19976;-63
2021/09/01 03:09:00;;;;;;;;;;;;;;;15.51;77.43;101083.88;4995016;28;19949;-62
2021/09/01 03:11:47;;;;;;;;;;;;;;;15.53;77.39;101092.63;4994270;28;19928;-63
2021/09/01 03:14:32;;;;;;;;;;;;;;;15.53;77.47;101086.53;4994319;28;19929;-62
2021/09/01 03:17:19;;;;;;;;;;;;;;;15.51;77.40;101086.50;4994642;28;19932;-63
2021/09/01 03:20:03;;;;;;;;;;;;;;;15.51;77.53;101083.88;4995024;28;19972;-62
2021/09/01 03:22:52;;;;;;;;;;;;;;;15.51;77.50;101083.03;4993917;28;20020;-63
2021/09/01 03:25:38;;;;;;;;;;;;;;;15.51;77.46;101080.41;4993449;28;20021;-62
2021/09/01 03:28:25;;;;;;;;;;;;;;;15.50;77.35;101079.50;5008092;28;20407;-63
2021/09/01 03:31:11;;;;;;;;;;;;;;;15.49;77.53;101080.38;4994866;28;19944;-62
2021/09/01 03:33:56;;;;;;;;;;;;;;;15.50;77.49;101082.13;4993298;28;19931;-62
2021/09/01 03:36:45;;;;;;;;;;;;;;;15.50;77.62;101083.88;4994807;28;19929;-62
2021/09/01 03:39:29;;;;;;;;;;;;;;;15.50;77.27;101087.34;5007924;28;20412;-64
2021/09/01 03:42:18;;;;;;;;;;;;;;;15.49;77.43;101075.16;5007451;28;20435;-63
2021/09/01 03:45:05;;;;;;;;;;;;;;;15.49;77.40;101075.16;5007777;28;20408;-64
2021/09/01 03:47:49;;;;;;;;;;;;;;;15.50;77.46;101087.34;5007370;28;20465;-62
2021/09/01 03:50:33;;;;;;;;;;;;;;;15.50;77.45;101076.03;4995428;28;20073;-62
2021/09/01 03:53:20;;;;;;;;;;;;;;;15.49;77.40;101080.38;4994454;28;20396;-63
2021/09/01 03:56:09;;;;;;;;;;;;;;;15.49;77.21;101077.75;4993735;28;19929;-62
2021/09/01 03:58:55;;;;;;;;;;;;;;;15.49;77.45;101079.50;5007721;28;19929;-62
2021/09/01 04:01:39;;;;;;;;;;;;;;;15.48;77.43;101077.75;4993966;28;19976;-62
2021/09/01 04:04:26;;;;;;;;;;;;;;;15.48;77.37;101086.47;5007458;28;19976;-62
2021/09/01 04:07:18;;;;;;;;;;;;;;;15.48;77.25;101086.47;4998659;28;20404;-63
2021/09/01 04:10:08;;;;;;;;;;;;;;;15.47;77.33;101083.84;5011994;28;19945;-62
2021/09/01 04:12:51;;;;;;;;;;;;;;;15.46;77.50;101085.59;5011758;28;19968;-64
2021/09/01 04:15:35;;;;;;;;;;;;;;;15.48;77.44;101088.19;4997900;28;19947;-64
2021/09/01 04:18:19;;;;;;;;;;;;;;;15.47;77.48;101100.41;4998331;28;19944;-63
2021/09/01 04:21:06;;;;;;;;;;;;;;;15.48;77.37;101090.81;4998145;28;20086;-64
2021/09/01 04:23:52;;;;;;;;;;;;;;;15.47;77.36;101097.78;5011504;28;19968;-63
2021/09/01 04:26:40;;;;;;;;;;;;;;;15.46;77.39;101095.13;4998621;28;19929;-64
2021/09/01 04:29:24;;;;;;;;;;;;;;;15.46;77.35;101100.38;5011061;28;20052;-62
2021/09/01 04:32:13;;;;;;;;;;;;;;;15.45;77.41;101096.88;4998077;28;19944;-62
2021/09/01 04:35:00;;;;;;;;;;;;;;;15.44;77.47;101102.06;4997075;28;19929;-62
2021/09/01 04:37:44;;;;;;;;;;;;;;;15.44;77.41;101102.97;5010888;28;20320;-61
2021/09/01 04:40:31;;;;;;;;;;;;;;;15.44;77.38;101105.56;4998367;28;19945;-62
2021/09/01 04:43:18;;;;;;;;;;;;;;;15.44;77.40;101097.75;4997319;28;20020;-62
2021/09/01 04:46:02;;;;;;;;;;;;;;;15.45;77.49;101098.59;4997965;28;19985;-62
2021/09/01 04:48:46;;;;;;;;;;;;;;;15.42;77.44;101094.22;4997806;28;19928;-62
2021/09/01 04:51:30;;;;;;;;;;;;;;;15.43;77.43;101098.59;4997305;28;20033;-63
2021/09/01 04:54:19;;;;;;;;;;;;;;;15.43;77.31;101100.31;4996524;28;20443;-63
2021/09/01 04:57:03;;;;;;;;;;;;;;;15.43;77.44;101100.31;4996770;28;19929;-63
2021/09/01 04:59:53;;;;;;;;;;;;;;;15.43;77.46;101103.81;5010869;28;19928;-63
2021/09/01 05:02:37;;;;;;;;;;;;;;;15.42;77.42;101106.41;5010318;28;20337;-62
2021/09/01 05:05:21;;;;;;;;;;;;;;;15.43;77.30;101100.31;4997523;28;19928;-62
2021/09/01 05:08:13;;;;;;;;;;;;;;;15.42;77.38;101103.78;4997293;28;20080;-62
2021/09/01 05:11:03;;;;;;;;;;;;;;;15.42;77.40;101104.69;4996639;28;19936;-62
2021/09/01 05:13:50;;;;;;;;;;;;;;;15.42;77.46;101099.47;4996183;28;19975;-62
2021/09/01 05:16:34;;;;;;;;;;;;;;;15.42;77.45;101114.22;4996092;28;19928;-62
2021/09/01 05:19:18;;;;;;;;;;;;;;;15.41;77.45;101113.38;4997343;28;19976;-63
2021/09/01 05:22:05;;;;;;;;;;;;;;;15.41;77.45;101122.97;4996875;28;19929;-62
2021/09/01 05:24:54;;;;;;;;;;;;;;;15.41;77.36;101122.97;4996021;28;19929;-62
2021/09/01 05:27:40;;;;;;;;;;;;;;;15.40;77.38;101115.97;5010180;28;20388;-62
2021/09/01 05:30:25;;;;;;;;;;;;;;;15.40;77.45;101121.19;4997376;28;19929;-62
2021/09/01 05:33:10;;;;;;;;;;;;;;;15.39;77.43;101120.31;4996304;28;20393;-62
2021/09/01 05:35:54;;;;;;;;;;;;;;;15.38;77.23;101119.44;4996922;28;19976;-62
2021/09/01 05:38:38;;;;;;;;;;;;;;;15.38;77.32;101118.56;4995938;28;20337;-62
2021/09/01 05:41:25;;;;;;;;;;;;;;;15.38;77.33;101122.06;4996680;28;19929;-62
2021/09/01 05:44:09;;;;;;;;;;;;;;;15.38;77.34;101124.66;4995832;28;20382;-62
2021/09/01 05:47:00;;;;;;;;;;;;;;;15.38;77.30;101123.78;4996037;28;19928;-62
2021/09/01 05:49:48;;;;;;;;;;;;;;;15.38;77.25;101126.38;4997062;28;19929;-62
2021/09/01 05:52:32;;;;;;;;;;;;;;;15.37;77.17;101122.00;4995857;28;19953;-62
2021/09/01 05:55:16;;;;;;;;;;;;;;;15.37;77.32;101135.06;4996541;28;20028;-62
2021/09/01 05:58:01;;;;;;;;;;;;;;;15.37;77.22;101122.00;4996393;28;20029;-62
2021/09/01 06:00:52;;;;;;;;;;;;;;;15.37;77.27;101125.53;4996058;28;20464;-64
2021/09/01 06:03:44;;;;;;;;;;;;;;;15.36;77.27;101126.38;4996708;28;19980;-63
2021/09/01 06:06:28;;;;;;;;;;;;;;;15.35;77.37;101127.22;4996222;28;19928;-64
2021/09/01 06:09:12;;;;;;;;;;;;;;;15.35;77.20;101132.44;5009249;28;19928;-64
2021/09/01 06:12:00;;;;;;;;;;;;;;;15.36;77.19;101131.59;4996235;28;19933;-64
2021/09/01 06:14:44;;;;;;;;;;;;;;;15.35;77.13;101121.13;4995944;28;19945;-64
2021/09/01 06:17:27;;;;;;;;;;;;;;;15.36;77.35;101128.09;4995285;28;19929;-64
2021/09/01 06:20:11;;;;;;;;;;;;;;;15.35;77.30;101129.84;4996399;28;20336;-64
2021/09/01 06:22:55;;;;;;;;;;;;;;;15.36;77.19;101128.09;4996010;28;20130;-63
2021/09/01 06:25:39;;;;;;;;;;;;;;;15.35;77.08;101126.34;4996111;28;20003;-63
2021/09/01 06:28:23;;;;;;;;;;;;;;;15.36;77.14;101129.00;4994738;28;20419;-63
2021/09/01 06:31:07;;;;;;;;;;;;;;;15.35;77.17;101127.22;4995940;28;19928;-63
2021/09/01 06:33:51;;;;;;;;;;;;;;;15.36;77.38;101128.09;4995315;28;20352;-64
2021/09/01 06:36:40;;;;;;;;;;;;;;;15.36;77.28;101136.81;4996014;28;19968;-64
2021/09/01 06:39:24;;;;;;;;;;;;;;;15.37;77.42;101135.06;5009164;28;20012;-63
2021/09/01 06:42:08;;;;;;;;;;;;;;;15.37;77.22;101135.06;4995578;28;19953;-63
2021/09/01 06:44:55;;;;;;;;;;;;;;;15.36;77.17;101131.59;4995226;28;19928;-62
2021/09/01 06:47:46;;;;;;;;;;;;;;;15.37;77.39;101142.91;4994913;28;19937;-62
2021/09/01 06:50:30;;;;;;;;;;;;;;;15.36;77.33;101141.16;4995406;28;19976;-62
2021/09/01 06:53:14;;;;;;;;;;;;;;;15.36;77.37;101143.75;4995752;28;19971;-62
2021/09/01 06:55:58;;;;;;;;;;;;;;;15.36;77.35;101143.75;4994136;28;19944;-63
2021/09/01 06:58:42;;;;;;;;;;;;;;;15.36;77.37;101147.28;4994282;28;20443;-63
2021/09/01 07:01:26;;;;;;;;;;;;;;;15.35;77.09;101150.75;4995650;28;19952;-62
2021/09/01 07:04:10;;;;;;;;;;;;;;;15.37;77.39;101158.59;4994998;28;20014;-63
2021/09/01 07:06:54;;;;;;;;;;;;;;;15.36;77.33;101160.34;4994161;28;19944;-63
2021/09/01 07:09:37;;;;;;;;;;;;;;;15.37;77.34;101158.59;4995261;28;19928;-62
2021/09/01 07:12:22;;;;;;;;;;;;;;;15.37;77.34;101158.59;4995300;28;19929;-62
2021/09/01 07:15:09;;;;;;;;;;;;;;;15.37;77.25;101158.59;4993772;28;19933;-62
2021/09/01 07:17:54;;;;;;;;;;;;;;;15.37;77.35;101164.69;4993975;28;19928;-62
2021/09/01 07:20:40;;;;;;;;;;;;;;;15.36;77.35;101162.94;4994121;28;21597;-62
2021/09/01 07:23:27;;;;;;;;;;;;;;;15.37;77.11;101159.47;4993992;28;19928;-62
2021/09/01 07:26:12;;;;;;;;;;;;;;;15.38;77.28;101155.13;4994031;28;20294;-62
2021/09/01 07:28:56;;;;;;;;;;;;;;;15.38;77.32;101155.13;4994627;28;19932;-62
2021/09/01 07:31:46;;;;;;;;;;;;;;;15.37;77.26;101164.69;4994793;28;19928;-62
2021/09/01 07:34:33;;;;;;;;;;;;;;;15.37;77.42;101166.41;4993449;28;19980;-62
2021/09/01 07:37:17;;;;;;;;;;;;;;;15.38;77.51;101166.47;4993811;28;20277;-63
2021/09/01 07:40:01;;;;;;;;;;;;;;;15.38;77.25;101166.47;4994631;28;19932;-62
2021/09/01 07:42:45;;;;;;;;;;;;;;;15.37;77.13;101162.09;5007452;28;20017;-62
2021/09/01 07:45:32;;;;;;;;;;;;;;;15.38;77.33;101166.47;4994889;28;20485;-63
2021/09/01 07:48:19;;;;;;;;;;;;;;;15.38;77.17;101169.06;4994741;28;19932;-62
2021/09/01 07:51:06;;;;;;;;;;;;;;;15.39;77.16;101169.94;4994423;28;19929;-63
2021/09/01 07:53:50;;;;;;;;;;;;;;;15.40;77.33;101183.88;4994507;28;20465;-62
2021/09/01 07:56:37;;;;;;;;;;;;;;;15.40;77.27;101184.75;5007227;28;20309;-62
2021/09/01 07:59:27;;;;;;;;;;;;;;;15.41;77.16;101190.88;4993386;28;19928;-62
2021/09/01 08:02:14;;;;;;;;;;;;;;;15.41;77.37;101196.09;4993676;28;19929;-63
2021/09/01 08:04:58;;;;;;;;;;;;;;;15.40;77.40;101194.34;4994099;28;19937;-63
2021/09/01 08:07:42;;;;;;;;;;;;;;;15.41;77.24;101196.97;4994782;28;20012;-62
2021/09/01 08:10:26;;;;;;;;;;;;;;;15.41;77.33;101201.31;4994330;28;20041;-62
2021/09/01 08:13:10;;;;;;;;;;;;;;;15.41;77.26;101202.19;4993948;28;19929;-62
2021/09/01 08:15:57;;;;;;;;;;;;;;;15.42;77.36;101205.66;4994335;28;19928;-62
2021/09/01 08:18:41;;;;;;;;;;;;;;;15.42;77.37;101205.66;4994567;28;20352;-62
2021/09/01 08:21:32;;;;;;;;;;;;;;;15.40;77.16;101203.03;4994456;28;19932;-62
2021/09/01 08:24:16;;;;;;;;;;;;;;;15.41;77.32;101203.94;4993169;28;20399;-62
2021/09/01 08:27:00;;;;;;;;;;;;;;;15.41;77.25;101211.78;4994089;28;20289;-62
2021/09/01 08:29:52;;;;;;;;;;;;;;;15.41;77.13;101212.63;5007061;28;20297;-62
2021/09/01 08:32:36;;;;;;;;;;;;;;;15.42;77.21;101208.28;4993678;28;19933;-62
2021/09/01 08:35:20;;;;;;;;;;;;;;;15.41;77.33;101204.78;4994112;28;19985;-62
2021/09/01 08:38:04;;;;;;;;;;;;;;;15.42;77.14;101205.66;4993754;28;20016;-62
2021/09/01 08:40:48;;;;;;;;;;;;;;;15.41;77.14;101207.41;4993800;28;19929;-62
2021/09/01 08:43:35;;;;;;;;;;;;;;;15.41;77.22;101204.78;4993060;28;19928;-63
2021/09/01 08:46:22;;;;;;;;;;;;;;;15.41;77.15;101204.78;5007418;28;20451;-62
2021/09/01 08:49:07;;;;;;;;;;;;;;;15.41;77.21;101217.84;4994441;28;19933;-62
2021/09/01 08:51:51;;;;;;;;;;;;;;;15.42;77.19;101222.22;4995678;28;19937;-62
2021/09/01 08:54:37;;;;;;;;;;;;;;;15.42;77.01;101218.72;4997417;28;19928;-62
2021/09/01 08:57:22;;;;;;;;;;;;;;;15.42;77.12;101224.84;4997342;28;19929;-62
2021/09/01 09:00:07;;;;;;;;;;;;;;;15.42;77.20;101222.22;4997481;28;20144;-62
2021/09/01 09:02:55;;;;;;;;;;;;;;;15.43;77.20;101223.09;4997383;28;20297;-63
2021/09/01 09:05:41;;;;;;;;;;;;;;;15.42;77.27;101227.44;4996562;28;20354;-62
2021/09/01 09:08:30;;;;;;;;;;;;;;;15.43;77.22;101231.81;5010306;28;20021;-63
2021/09/01 09:11:16;;;;;;;;;;;;;;;15.43;77.03;101229.22;4997188;28;19928;-62
2021/09/01 09:14:14;;;;;;;;;;;;;;;15.43;77.12;101223.97;4997317;28;19928;-62
2021/09/01 09:17:00;;;;;;;;;;;;;;;15.44;77.12;101223.13;5010839;28;20301;-63
2021/09/01 09:20:00;;;;;;;;;;;;;;;15.43;77.09;101226.59;4996995;28;19929;-62
2021/09/01 09:22:49;;;;;;;;;;;;;;;15.44;77.10;101227.47;4997486;28;19929;-62
2021/09/01 09:25:37;;;;;;;;;;;;;;;15.44;77.08;101227.47;4996442;28;20329;-63
2021/09/01 09:28:21;;;;;;;;;;;;;;;15.44;77.11;101228.34;4996650;28;20403;-62
2021/09/01 09:31:08;;;;;;;;;;;;;;;15.43;76.98;101221.38;5009856;28;19928;-63
2021/09/01 09:33:52;;;;;;;;;;;;;;;15.43;77.09;101221.38;4996821;28;19930;-62
2021/09/01 09:36:37;;;;;;;;;;;;;;;15.45;77.16;101221.38;4996499;28;19979;-62
2021/09/01 09:39:38;;;;;;;;;;;;;;;15.45;77.13;101213.53;4996957;28;20420;-62
2021/09/01 09:42:41;;;;;;;;;;;;;;;15.45;77.15;101205.72;4996320;28;19928;-62
2021/09/01 09:45:26;;;;;;;;;;;;;;;15.45;77.21;101208.31;4995854;28;19928;-62
2021/09/01 09:48:11;;;;;;;;;;;;;;;15.45;77.16;101214.44;4995614;28;20016;-62
2021/09/01 09:50:55;;;;;;;;;;;;;;;15.46;77.09;101217.91;4996759;28;19929;-62
2021/09/01 09:53:39;;;;;;;;;;;;;;;15.46;76.99;101221.44;4997095;28;19941;-62
2021/09/01 09:56:29;;;;;;;;;;;;;;;15.46;77.11;101215.31;4996527;28;19928;-62
2021/09/01 09:59:24;;;;;;;;;;;;;;;15.46;76.97;101216.19;4995712;28;19968;-63
2021/09/01 10:02:10;;;;;;;;;;;;;;;15.46;77.08;101224.03;4994948;28;19969;-63
2021/09/01 10:05:01;;;;;;;;;;;;;;;15.47;77.16;101217.06;4996250;28;19928;-63
2021/09/01 10:07:47;;;;;;;;;;;;;;;15.47;77.06;101219.69;5009194;28;20012;-62
2021/09/01 10:10:36;;;;;;;;;;;;;;;15.48;77.16;101210.97;4995770;28;19928;-62
2021/09/01 10:13:22;;;;;;;;;;;;;;;15.48;77.15;101210.97;5008961;28;20300;-62
2021/09/01 10:16:13;;;;;;;;;;;;;;;15.48;76.96;101204.03;4995171;28;19975;-62
2021/09/01 10:19:09;;;;;;;;;;;;;;;15.48;77.13;101198.81;4995416;28;19928;-62
2021/09/01 10:21:58;;;;;;;;;;;;;;;15.48;77.40;101193.59;4996045;28;19928;-62
2021/09/01 10:24:46;;;;;;;;;;;;;;;15.48;77.05;101197.91;4995359;28;19977;-62
2021/09/01 10:27:33;;;;;;;;;;;;;;;15.50;77.28;101198.81;4995615;28;19972;-62
2021/09/01 10:30:20;;;;;;;;;;;;;;;15.49;77.23;101197.94;4995928;28;19949;-62
2021/09/01 10:33:26;;;;;;;;;;;;;;;15.49;77.28;101195.31;4994761;28;19929;-62
2021/09/01 10:36:36;;;;;;;;;;;;;;;15.50;77.14;101189.25;4995314;28;19944;-63
2021/09/01 10:39:29;;;;;;;;;;;;;;;15.50;77.05;101196.22;4996080;28;19929;-63
2021/09/01 10:42:33;;;;;;;;;;;;;;;15.49;77.23;101190.09;4995819;28;19929;-62
2021/09/01 10:45:25;;;;;;;;;;;;;;;15.49;77.15;101195.31;4995901;28;19932;-64
2021/09/01 10:48:15;;;;;;;;;;;;;;;15.50;77.26;101202.31;4994947;28;19929;-62
2021/09/01 10:50:59;;;;;;;;;;;;;;;15.50;77.20;101201.44;4995353;28;20388;-62
2021/09/01 10:53:45;;;;;;;;;;;;;;;15.50;77.25;101199.69;4995438;28;19976;-62
2021/09/01 10:56:32;;;;;;;;;;;;;;;15.50;77.04;101198.81;4995804;28;20424;-62
2021/09/01 10:59:29;;;;;;;;;;;;;;;15.50;77.20;101198.81;4995252;28;19932;-63
2021/09/01 11:02:17;;;;;;;;;;;;;;;15.50;77.27;101201.44;4994345;28;19944;-62
2021/09/01 11:05:08;;;;;;;;;;;;;;;15.50;77.06;101201.44;4994779;28;20073;-62
2021/09/01 11:07:58;;;;;;;;;;;;;;;15.50;77.26;101188.38;5008835;28;19929;-62
2021/09/01 11:10:57;;;;;;;;;;;;;;;15.51;77.18;101187.53;4995359;28;20396;-62
2021/09/01 11:13:41;;;;;;;;;;;;;;;15.51;77.23;101183.16;5007596;28;20365;-62
2021/09/01 11:16:28;;;;;;;;;;;;;;;15.51;77.12;101184.91;4994729;28;19988;-62
2021/09/01 11:19:12;;;;;;;;;;;;;;;15.52;77.20;101184.06;5007938;28;19928;-62
2021/09/01 11:21:58;;;;;;;;;;;;;;;15.51;77.19;101185.78;5007872;28;20020;-62
2021/09/01 11:24:49;;;;;;;;;;;;;;;15.52;77.06;101194.50;4994119;28;19929;-62
2021/09/01 11:27:37;;;;;;;;;;;;;;;15.52;77.20;101199.72;4993778;28;20392;-62
2021/09/01 11:30:21;;;;;;;;;;;;;;;15.51;77.19;101187.53;4993886;28;19928;-62
2021/09/01 11:33:11;;;;;;;;;;;;;;;15.53;77.18;101193.66;4994990;28;19943;-62
2021/09/01 11:35:59;;;;;;;;;;;;;;;15.51;76.97;101188.38;4993909;28;19928;-63
2021/09/01 11:38:47;;;;;;;;;;;;;;;15.51;76.96;101191.00;4993697;28;19928;-62
2021/09/01 11:41:31;;;;;;;;;;;;;;;15.50;77.02;101178.78;4994161;28;19967;-62
2021/09/01 11:44:17;;;;;;;;;;;;;;;15.50;77.03;101186.63;4994695;28;19960;-62
2021/09/01 11:47:04;;;;;;;;;;;;;;;15.52;77.12;101186.66;5007430;28;20336;-62
2021/09/01 11:49:54;;;;;;;;;;;;;;;15.52;77.16;101189.28;4994651;28;19964;-62
2021/09/01 11:52:38;;;;;;;;;;;;;;;15.51;77.17;101188.38;4993724;28;20451;-62
2021/09/01 11:55:24;;;;;;;;;;;;;;;15.50;77.07;101184.00;4994204;28;20411;-62
2021/09/01 11:58:16;;;;;;;;;;;;;;;15.50;77.05;101184.00;4993949;28;19928;-62
2021/09/01 12:01:13;;;;;;;;;;;;;;;15.51;77.00;101182.28;5007802;28;19929;-62
2021/09/01 12:04:01;;;;;;;;;;;;;;;15.51;77.06;101185.78;4993322;28;19929;-62
2021/09/01 12:06:55;;;;;;;;;;;;;;;15.51;76.97;101179.69;5008037;28;19929;-63
2021/09/01 12:09:42;;;;;;;;;;;;;;;15.52;77.09;101184.06;4993278;28;20340;-62
2021/09/01 12:12:33;;;;;;;;;;;;;;;15.53;77.16;101185.81;4993808;28;19929;-62
2021/09/01 12:15:17;;;;;;;;;;;;;;;15.53;76.96;101184.06;4993003;28;19960;-62
2021/09/01 12:18:03;;;;;;;;;;;;;;;15.54;77.00;101179.72;4993687;28;19933;-62
2021/09/01 12:20:56;;;;;;;;;;;;;;;15.56;76.96;101178.03;4993943;28;19980;-62
2021/09/01 12:23:46;;;;;;;;;;;;;;;15.54;77.13;101177.13;4993372;28;19929;-62
2021/09/01 12:26:31;;;;;;;;;;;;;;;15.55;76.95;101176.25;4994593;28;19929;-62
2021/09/01 12:29:25;;;;;;;;;;;;;;;15.55;76.97;101176.25;4997778;28;19929;-62
2021/09/01 12:32:14;;;;;;;;;;;;;;;15.56;76.97;101174.50;4997400;28;19928;-64
2021/09/01 12:35:01;;;;;;;;;;;;;;;15.56;76.97;101178.03;4997668;28;19929;-62
2021/09/01 12:37:56;;;;;;;;;;;;;;;15.56;77.06;101166.69;4997234;28;19928;-63
2021/09/01 12:40:42;;;;;;;;;;;;;;;15.56;77.14;101167.56;4997710;28;20436;-63
2021/09/01 12:43:26;;;;;;;;;;;;;;;15.57;76.94;101171.03;4997355;28;19932;-62
2021/09/01 12:46:26;;;;;;;;;;;;;;;15.57;76.94;101168.44;4998328;28;19936;-62
2021/09/01 12:49:23;;;;;;;;;;;;;;;15.57;77.11;101161.47;4997065;28;19929;-62
2021/09/01 12:52:07;;;;;;;;;;;;;;;15.57;77.00;101158.84;5010727;28;19929;-63
2021/09/01 12:54:57;;;;;;;;;;;;;;;15.57;76.86;101160.59;4996635;28;19929;-62
2021/09/01 12:57:44;;;;;;;;;;;;;;;15.58;76.90;101158.00;4996747;28;19945;-62
2021/09/01 13:00:34;;;;;;;;;;;;;;;15.58;77.04;101155.38;4998001;28;19929;-63
2021/09/01 13:03:18;;;;;;;;;;;;;;;15.58;77.11;101158.00;4996587;28;20321;-63
2021/09/01 13:06:08;;;;;;;;;;;;;;;15.58;76.90;101150.16;4997971;28;19976;-64
2021/09/01 13:09:00;;;;;;;;;;;;;;;15.58;76.94;101152.75;4996821;28;19976;-63
2021/09/01 13:11:47;;;;;;;;;;;;;;;15.58;76.86;101152.75;4996533;28;20065;-63
2021/09/01 13:14:33;;;;;;;;;;;;;;;15.60;76.85;101155.41;4997584;28;19929;-64
2021/09/01 13:17:17;;;;;;;;;;;;;;;15.58;77.09;101152.75;5010533;28;20384;-63
2021/09/01 13:20:07;;;;;;;;;;;;;;;15.58;76.90;101147.53;4997511;28;19933;-64
2021/09/01 13:22:55;;;;;;;;;;;;;;;15.59;77.10;101151.03;4996569;28;20297;-64
2021/09/01 13:25:40;;;;;;;;;;;;;;;15.59;76.95;101158.88;5009890;28;19928;-64
2021/09/01 13:28:26;;;;;;;;;;;;;;;15.59;76.90;101148.44;4997181;28;19998;-64
2021/09/01 13:31:14;;;;;;;;;;;;;;;15.60;76.90;101142.34;4997300;28;19939;-63
2021/09/01 13:34:01;;;;;;;;;;;;;;;15.59;76.79;101148.44;4996278;28;19929;-63
2021/09/01 13:36:48;;;;;;;;;;;;;;;15.60;76.88;101144.97;4996726;28;19968;-64
2021/09/01 13:39:35;;;;;;;;;;;;;;;15.60;76.81;101150.19;4996630;28;19945;-62
2021/09/01 13:42:21;;;;;;;;;;;;;;;15.59;76.80;101146.69;5009640;28;19949;-62
2021/09/01 13:45:09;;;;;;;;;;;;;;;15.59;77.01;101144.06;4996618;28;20419;-62
2021/09/01 13:47:56;;;;;;;;;;;;;;;15.60;76.94;101144.97;4996023;28;20293;-63
2021/09/01 13:50:43;;;;;;;;;;;;;;;15.60;76.97;101143.22;4996783;28;19944;-62
2021/09/01 13:53:26;;;;;;;;;;;;;;;15.61;76.94;101141.50;4996088;28;20281;-62
2021/09/01 13:56:10;;;;;;;;;;;;;;;15.60;76.99;101140.59;4996584;28;20337;-62
2021/09/01 13:58:54;;;;;;;;;;;;;;;15.59;76.78;101137.97;4996504;28;19968;-62
2021/09/01 14:01:41;;;;;;;;;;;;;;;15.61;76.83;101144.09;4996354;28;19968;-62
2021/09/01 14:04:31;;;;;;;;;;;;;;;15.61;76.79;101131.03;4995618;28;19928;-62
2021/09/01 14:07:20;;;;;;;;;;;;;;;15.60;76.74;101140.59;4995352;28;19928;-62
2021/09/01 14:10:05;;;;;;;;;;;;;;;15.61;76.86;101134.53;5009674;28;20405;-62
2021/09/01 14:12:49;;;;;;;;;;;;;;;15.61;77.07;101131.91;4996227;28;19929;-62
2021/09/01 14:15:36;;;;;;;;;;;;;;;15.61;76.86;101131.91;4996403;28;20032;-64